createdAt,value
2022-11-06T00:04:32.411Z,8.92
2022-11-06T00:09:38.869Z,8.93
2022-11-06T00:14:45.353Z,8.91
2022-11-06T00:19:51.166Z,8.84
2022-11-06T00:24:57.096Z,8.77
2022-11-06T00:30:06.692Z,8.76
2022-11-06T00:35:12.820Z,8.70
2022-11-06T00:40:18.782Z,8.65
2022-11-06T00:45:25.271Z,8.64
2022-11-06T00:50:32.280Z,8.63
2022-11-06T00:55:38.348Z,8.63
2022-11-06T01:00:44.732Z,8.62
2022-11-06T01:05:50.631Z,8.62
2022-11-06T01:10:56.742Z,8.63
2022-11-06T01:16:05.137Z,8.61
2022-11-06T01:21:14.425Z,8.54
2022-11-06T01:26:36.834Z,8.44
2022-11-06T01:31:45.555Z,8.37
2022-11-06T01:36:51.425Z,8.26
2022-11-06T01:41:57.354Z,8.15
2022-11-06T01:47:05.481Z,8.03
2022-11-06T01:52:15.028Z,7.95
2022-11-06T01:57:21.911Z,7.81
2022-11-06T02:02:27.912Z,7.67
2022-11-06T02:07:35.190Z,7.59
2022-11-06T02:12:53.019Z,7.55
2022-11-06T02:18:13.515Z,7.47
2022-11-06T02:23:46.165Z,7.38
2022-11-06T02:28:56.059Z,7.26
2022-11-06T02:34:06.936Z,7.24
2022-11-06T02:39:16.934Z,7.22
2022-11-06T02:44:26.456Z,7.14
2022-11-06T02:49:38.510Z,6.99
2022-11-06T02:54:49.335Z,6.82
2022-11-06T03:00:09.349Z,6.74
2022-11-06T03:05:19.652Z,6.72
2022-11-06T03:10:30.355Z,6.65
2022-11-06T03:15:44.117Z,6.55
2022-11-06T03:21:00.921Z,6.50
2022-11-06T03:26:14.706Z,6.49
2022-11-06T03:31:26.174Z,6.46
2022-11-06T03:36:35.411Z,6.39
2022-11-06T03:41:48.286Z,6.39
2022-11-06T03:46:59.280Z,6.35
2022-11-06T03:52:11.290Z,6.28
2022-11-06T03:57:21.899Z,6.18
2022-11-06T04:02:31.911Z,6.07
2022-11-06T04:07:42.614Z,5.94
2022-11-06T04:13:10.095Z,5.76
2022-11-06T04:18:22.116Z,5.56
2022-11-06T04:23:40.052Z,5.42
2022-11-06T04:28:53.103Z,5.30
2022-11-06T04:34:05.124Z,5.17
2022-11-06T04:39:18.382Z,5.01
2022-11-06T04:44:30.198Z,4.92
2022-11-06T04:49:38.320Z,4.89
2022-11-06T04:54:44.786Z,4.85
2022-11-06T04:59:50.782Z,4.80
2022-11-06T05:04:56.666Z,4.69
2022-11-06T05:10:02.917Z,4.61
2022-11-06T05:15:10.036Z,4.55
2022-11-06T05:20:16.008Z,4.46
2022-11-06T05:25:22.117Z,4.28
2022-11-06T05:30:28.668Z,4.11
2022-11-06T05:35:34.524Z,4.00
2022-11-06T05:40:40.845Z,4.00
2022-11-06T05:45:46.870Z,4.04
2022-11-06T05:50:52.719Z,4.05
2022-11-06T05:55:58.718Z,4.06
2022-11-06T06:01:05.307Z,4.04
2022-11-06T06:06:11.107Z,4.07
2022-11-06T06:11:16.900Z,4.00
2022-11-06T06:16:22.843Z,3.94
2022-11-06T06:21:28.934Z,3.94
2022-11-06T06:26:34.916Z,4.11
2022-11-06T06:31:41.805Z,4.41
2022-11-06T06:36:51.765Z,4.66
2022-11-06T06:41:58.800Z,4.92
2022-11-06T06:47:04.701Z,5.18
2022-11-06T06:52:10.980Z,5.45
2022-11-06T06:57:17.390Z,5.75
2022-11-06T07:02:23.402Z,5.99
2022-11-06T07:07:29.269Z,6.18
2022-11-06T07:12:35.097Z,6.37
2022-11-06T07:17:41.806Z,6.57
2022-11-06T07:22:47.772Z,6.75
2022-11-06T07:27:54.668Z,6.90
2022-11-06T07:33:03.815Z,7.12
2022-11-06T07:38:09.794Z,7.34
2022-11-06T07:43:15.870Z,7.48
2022-11-06T07:48:21.668Z,7.56
2022-11-06T07:53:27.620Z,7.67
2022-11-06T07:58:34.846Z,7.77
2022-11-06T08:03:41.089Z,7.91
2022-11-06T08:08:47.281Z,8.32
2022-11-06T08:13:53.175Z,8.62
2022-11-06T08:18:59.073Z,8.59
2022-11-06T08:24:05.768Z,8.41
2022-11-06T08:29:11.845Z,8.25
2022-11-06T08:34:17.924Z,8.09
2022-11-06T08:39:25.572Z,7.95
2022-11-06T08:44:32.137Z,7.91
2022-11-06T08:49:38.188Z,7.91
2022-11-06T08:54:44.100Z,8.04
2022-11-06T08:59:50.321Z,8.24
2022-11-06T09:04:56.336Z,8.37
2022-11-06T09:10:02.302Z,8.42
2022-11-06T09:15:09.701Z,8.42
2022-11-06T09:20:18.933Z,8.58
2022-11-06T09:25:24.959Z,8.62
2022-11-06T09:30:32.435Z,8.72
2022-11-06T09:35:39.060Z,8.94
2022-11-06T09:40:51.515Z,9.05
2022-11-06T09:46:06.284Z,9.21
2022-11-06T09:51:20.105Z,9.51
2022-11-06T09:56:31.104Z,9.88
2022-11-06T10:01:44.026Z,9.93
2022-11-06T10:06:50.218Z,10.03
2022-11-06T10:12:09.643Z,10.12
2022-11-06T10:17:29.285Z,10.03
2022-11-06T10:22:39.871Z,10.15
2022-11-06T10:28:00.948Z,10.51
2022-11-06T10:33:30.049Z,10.81
2022-11-06T10:38:39.271Z,10.86
2022-11-06T10:43:53.136Z,10.92
2022-11-06T10:49:01.815Z,11.16
2022-11-06T10:54:20.431Z,11.89
2022-11-06T10:59:26.686Z,11.97
2022-11-06T11:04:33.727Z,11.71
2022-11-06T11:09:41.813Z,11.35
2022-11-06T11:15:04.588Z,11.40
2022-11-06T11:25:53.433Z,12.29
2022-11-06T11:31:06.248Z,12.65
2022-11-06T11:36:12.713Z,12.73
2022-11-06T11:41:25.842Z,12.52
2022-11-06T11:46:32.851Z,12.47
2022-11-06T11:51:42.062Z,12.70
2022-11-06T11:57:07.806Z,12.95
2022-11-06T12:02:26.842Z,12.95
2022-11-06T12:07:39.796Z,12.91
2022-11-06T12:12:53.148Z,13.16
2022-11-06T12:18:04.733Z,13.35
2022-11-06T12:23:14.987Z,13.36
2022-11-06T12:28:24.429Z,13.36
2022-11-06T12:34:04.646Z,13.34
2022-11-06T12:39:03.300Z,13.27
2022-11-06T12:44:13.376Z,13.24
2022-11-06T12:49:49.551Z,13.17
2022-11-06T12:55:16.234Z,13.09
2022-11-06T13:00:31.146Z,12.97
2022-11-06T13:05:44.857Z,12.77
2022-11-06T13:11:06.701Z,12.61
2022-11-06T13:16:19.998Z,12.50
2022-11-06T13:21:35.848Z,12.42
2022-11-06T13:26:47.576Z,12.34
2022-11-06T13:31:58.811Z,12.17
2022-11-06T13:37:06.788Z,12.08
2022-11-06T13:42:27.061Z,11.92
2022-11-06T13:47:52.255Z,11.77
2022-11-06T13:53:03.401Z,11.59
2022-11-06T13:58:21.120Z,11.51
2022-11-06T14:03:55.380Z,11.51
2022-11-06T14:09:05.759Z,11.42
2022-11-06T14:14:24.095Z,11.23
2022-11-06T14:19:30.748Z,10.88
2022-11-06T14:24:37.754Z,10.62
2022-11-06T14:30:00.026Z,10.28
2022-11-06T14:35:51.281Z,9.91
2022-11-06T14:40:58.367Z,9.64
2022-11-06T14:46:07.383Z,9.36
2022-11-06T14:51:14.681Z,8.96
2022-11-06T14:56:26.294Z,8.70
2022-11-06T15:01:34.326Z,8.36
2022-11-06T15:06:46.093Z,8.03
2022-11-06T15:12:00.672Z,7.67
2022-11-06T15:17:11.653Z,7.36
2022-11-06T15:22:26.409Z,7.09
2022-11-06T15:27:42.881Z,6.81
2022-11-06T15:32:52.846Z,6.57
2022-11-06T15:38:05.484Z,6.39
2022-11-06T15:43:29.717Z,6.25
2022-11-06T15:48:35.868Z,6.06
2022-11-06T15:53:42.805Z,5.91
2022-11-06T15:59:07.375Z,5.75
2022-11-06T16:04:18.946Z,5.64
2022-11-06T16:09:27.172Z,5.56
2022-11-06T16:14:38.355Z,5.45
2022-11-06T16:19:44.659Z,5.28
2022-11-06T16:24:55.605Z,5.10
2022-11-06T16:30:06.669Z,4.98
2022-11-06T16:35:24.616Z,4.85
2022-11-06T16:40:51.161Z,4.70
2022-11-06T16:46:00.755Z,4.54
2022-11-06T16:51:09.830Z,4.39
2022-11-06T16:56:15.924Z,4.32
2022-11-06T17:01:27.175Z,4.26
2022-11-06T17:06:35.410Z,4.17
2022-11-06T17:11:41.932Z,4.06
2022-11-06T17:16:50.181Z,4.03
2022-11-06T17:21:56.146Z,4.04
2022-11-06T17:27:02.398Z,4.09
2022-11-06T17:32:08.605Z,4.09
2022-11-06T17:37:14.496Z,4.07
2022-11-06T17:42:20.297Z,4.01
2022-11-06T17:47:26.193Z,4.04
2022-11-06T17:52:32.254Z,4.08
2022-11-06T17:57:38.322Z,3.98
2022-11-06T18:03:00.378Z,3.88
2022-11-06T18:08:11.414Z,3.81
2022-11-06T18:13:17.733Z,3.75
2022-11-06T18:18:24.031Z,3.68
2022-11-06T18:23:29.913Z,3.62
2022-11-06T18:28:35.851Z,3.52
2022-11-06T18:33:42.483Z,3.37
2022-11-06T18:38:48.796Z,3.18
2022-11-06T18:43:59.680Z,3.00
2022-11-06T18:49:05.829Z,2.87
2022-11-06T18:54:13.550Z,2.79
2022-11-06T18:59:19.772Z,2.71
2022-11-06T19:04:27.836Z,2.65
2022-11-06T19:09:34.028Z,2.63
2022-11-06T19:14:39.972Z,2.59
2022-11-06T19:19:47.317Z,2.50
2022-11-06T19:24:53.181Z,2.36
2022-11-06T19:30:00.545Z,2.22
2022-11-06T19:35:07.947Z,2.19
2022-11-06T19:40:14.292Z,2.21
2022-11-06T19:45:22.078Z,2.16
2022-11-06T19:50:53.621Z,2.08
2022-11-06T19:55:54.310Z,2.01
2022-11-06T20:01:00.800Z,2.00
2022-11-06T20:06:08.416Z,2.03
2022-11-06T20:11:17.931Z,2.01
2022-11-06T20:16:23.845Z,1.89
2022-11-06T20:21:29.999Z,1.77
2022-11-06T20:26:36.432Z,1.73
2022-11-06T20:31:42.734Z,1.67
2022-11-06T20:36:48.915Z,1.60
2022-11-06T20:41:55.227Z,1.48
2022-11-06T20:47:01.452Z,1.41
2022-11-06T20:52:15.680Z,1.44
2022-11-06T20:57:21.872Z,1.51
2022-11-06T21:02:28.462Z,1.56
2022-11-06T21:07:35.338Z,1.57
2022-11-06T21:12:41.548Z,1.58
2022-11-06T21:17:47.490Z,1.52
2022-11-06T21:22:53.684Z,1.41
2022-11-06T21:27:59.669Z,1.35
2022-11-06T21:33:05.867Z,1.29
2022-11-06T21:38:11.684Z,1.29
2022-11-06T21:43:17.503Z,1.32
2022-11-06T21:48:44.829Z,1.30
2022-11-06T21:54:09.463Z,1.26
2022-11-06T21:59:17.954Z,1.18
2022-11-06T22:04:23.849Z,1.26
2022-11-06T22:09:29.821Z,1.39
2022-11-06T22:14:36.050Z,1.52
2022-11-06T22:19:42.349Z,1.54
2022-11-06T22:24:49.184Z,1.45
2022-11-06T22:29:55.181Z,1.39
2022-11-06T22:35:01.080Z,1.43
2022-11-06T22:40:09.710Z,1.36
2022-11-06T22:45:15.836Z,1.23
2022-11-06T22:50:21.669Z,1.11
2022-11-06T22:55:27.789Z,0.98
2022-11-06T23:00:33.857Z,0.95
2022-11-06T23:05:41.877Z,1.08
2022-11-06T23:10:47.860Z,1.18
2022-11-06T23:16:03.139Z,1.23
2022-11-06T23:21:15.693Z,1.28
2022-11-06T23:26:21.703Z,1.37
2022-11-06T23:31:27.929Z,1.45
2022-11-06T23:36:35.297Z,1.48
2022-11-06T23:41:45.955Z,1.42
2022-11-06T23:46:53.405Z,1.30
2022-11-06T23:51:59.617Z,1.19
2022-11-06T23:57:07.177Z,1.14
